Time;durP1;ratioP1;P1;durP2;ratioP2;P2;SDS_P1;SDS_P2;PMS_P1;PMS_P2;Temp;Humidity;BMP_temperature;BMP_pressure;BME280_temperature;BME280_humidity;BME280_pressure;Samples;Min_cycle;Max_cycle;Signal;HPM_P1;HPM_P2
2021/12/28 00:00:16;;;;;;;69.28;38.03;;;;;;;;;;6209135;23;20393;-91
2021/12/28 00:02:46;;;;;;;61.88;37.15;;;;;;;;;;6183826;23;20013;-91
2021/12/28 00:05:12;;;;;;;69.20;39.08;;;;;;;;;;6208419;23;20017;-91
2021/12/28 00:07:38;;;;;;;64.70;35.35;;;;;;;;;;6208661;23;20020;-90
2021/12/28 00:10:06;;;;;;;74.57;40.15;;;;;;;;;;6184658;23;20024;-91
2021/12/28 00:12:35;;;;;;;64.05;37.35;;;;;;;;;;6208652;23;20096;-90
2021/12/28 00:15:06;;;;;;;70.60;40.05;;;;;;;;;;6183573;23;20134;-90
2021/12/28 00:20:18;;;;;;;67.00;38.83;;;;;;;;;;6209455;23;20444;-90
2021/12/28 00:22:44;;;;;;;76.32;40.22;;;;;;;;;;6183511;23;20020;-91
2021/12/28 00:25:11;;;;;;;74.50;42.00;;;;;;;;;;6183465;23;20021;-90
2021/12/28 00:27:38;;;;;;;75.25;38.10;;;;;;;;;;6183559;23;20016;-90
2021/12/28 00:30:05;;;;;;;82.25;41.33;;;;;;;;;;6183806;23;20012;-89
2021/12/28 00:32:31;;;;;;;97.32;45.95;;;;;;;;;;6183488;23;20016;-90
2021/12/28 00:34:58;;;;;;;91.60;46.42;;;;;;;;;;6208672;23;20278;-90
2021/12/28 00:37:24;;;;;;;84.28;43.50;;;;;;;;;;6208442;23;20020;-89
2021/12/28 00:39:50;;;;;;;96.25;47.33;;;;;;;;;;6183348;23;20070;-90
2021/12/28 00:42:16;;;;;;;107.15;51.53;;;;;;;;;;6183518;23;20013;-89
2021/12/28 00:44:42;;;;;;;99.40;47.63;;;;;;;;;;6183218;23;20013;-89
2021/12/28 00:47:09;;;;;;;103.80;50.15;;;;;;;;;;6209041;23;20346;-90
2021/12/28 00:49:35;;;;;;;103.72;47.47;;;;;;;;;;6208558;23;20414;-90
2021/12/28 00:52:01;;;;;;;111.50;51.28;;;;;;;;;;6194181;23;20442;-89
2021/12/28 00:54:27;;;;;;;120.43;52.28;;;;;;;;;;6188357;23;20016;-90
2021/12/28 00:56:54;;;;;;;121.80;51.70;;;;;;;;;;6188341;23;20012;-89
2021/12/28 00:59:20;;;;;;;135.98;54.97;;;;;;;;;;6188284;23;20020;-90
2021/12/28 01:01:47;;;;;;;111.50;52.20;;;;;;;;;;6213250;23;20012;-89
2021/12/28 01:04:14;;;;;;;147.25;58.10;;;;;;;;;;6213262;23;20034;-89
2021/12/28 01:06:41;;;;;;;114.15;50.97;;;;;;;;;;6212741;23;20016;-89
2021/12/28 01:09:07;;;;;;;140.23;57.65;;;;;;;;;;6188048;23;20449;-89
2021/12/28 01:11:33;;;;;;;116.82;51.05;;;;;;;;;;6240486;23;20016;-89
2021/12/28 01:14:00;;;;;;;133.55;57.45;;;;;;;;;;6188113;23;20027;-88
2021/12/28 01:16:26;;;;;;;146.60;57.78;;;;;;;;;;6188409;23;20008;-89
2021/12/28 01:18:52;;;;;;;154.10;57.83;;;;;;;;;;6212705;23;20012;-89
2021/12/28 01:21:19;;;;;;;143.38;60.50;;;;;;;;;;6187990;23;20039;-89
2021/12/28 01:23:45;;;;;;;184.93;65.63;;;;;;;;;;6213158;23;20400;-89
2021/12/28 01:26:11;;;;;;;160.95;61.78;;;;;;;;;;6212905;23;20464;-89
2021/12/28 01:28:38;;;;;;;219.95;72.13;;;;;;;;;;6187704;23;20187;-89
2021/12/28 01:31:04;;;;;;;181.25;65.63;;;;;;;;;;6188065;23;20021;-89
2021/12/28 01:33:30;;;;;;;336.75;90.72;;;;;;;;;;6188321;23;20054;-89
2021/12/28 01:35:58;;;;;;;195.70;69.05;;;;;;;;;;6188409;23;20091;-89
2021/12/28 01:38:24;;;;;;;173.02;66.00;;;;;;;;;;6214755;23;20096;-89
2021/12/28 01:40:53;;;;;;;185.60;67.90;;;;;;;;;;6190036;23;20087;-89
2021/12/28 01:43:20;;;;;;;210.13;69.63;;;;;;;;;;6190076;23;20012;-89
2021/12/28 01:45:54;;;;;;;209.07;68.45;;;;;;;;;;6190146;23;20042;-89
2021/12/28 01:48:27;;;;;;;275.40;79.57;;;;;;;;;;6190219;23;20580;-89
2021/12/28 01:50:54;;;;;;;205.23;66.75;;;;;;;;;;6215682;23;20039;-89
2021/12/28 01:53:21;;;;;;;274.42;79.20;;;;;;;;;;6214314;23;20016;-89
2021/12/28 01:55:49;;;;;;;497.23;108.22;;;;;;;;;;6189919;23;20050;-88
2021/12/28 01:58:15;;;;;;;266.60;74.53;;;;;;;;;;6189754;23;20063;-89
2021/12/28 02:00:42;;;;;;;518.95;111.95;;;;;;;;;;6189947;23;20020;-89
2021/12/28 02:03:13;;;;;;;228.13;72.45;;;;;;;;;;6214785;23;20011;-89
2021/12/28 02:05:39;;;;;;;565.40;119.28;;;;;;;;;;6214775;23;20450;-89
2021/12/28 02:08:06;;;;;;;306.80;81.85;;;;;;;;;;6189486;23;20401;-88
2021/12/28 02:10:33;;;;;;;287.02;79.65;;;;;;;;;;6189730;23;20019;-89
2021/12/28 02:12:59;;;;;;;321.02;79.70;;;;;;;;;;6189502;23;20008;-89
2021/12/28 02:15:25;;;;;;;362.67;86.22;;;;;;;;;;6189284;23;20035;-89
2021/12/28 02:17:52;;;;;;;288.35;79.57;;;;;;;;;;6214813;23;20453;-89
2021/12/28 02:20:19;;;;;;;396.63;95.45;;;;;;;;;;6190031;23;20039;-88
2021/12/28 02:22:45;;;;;;;284.73;76.97;;;;;;;;;;6214721;23;20047;-89
2021/12/28 02:25:13;;;;;;;450.88;96.65;;;;;;;;;;6190082;23;20043;-88
2021/12/28 02:27:40;;;;;;;385.55;88.00;;;;;;;;;;6189599;23;20016;-88
2021/12/28 02:30:08;;;;;;;470.40;104.93;;;;;;;;;;6214576;23;20115;-88
2021/12/28 02:32:34;;;;;;;384.63;88.70;;;;;;;;;;6214563;23;20012;-88
2021/12/28 02:35:00;;;;;;;545.63;105.00;;;;;;;;;;6214461;23;20019;-88
2021/12/28 02:37:27;;;;;;;771.75;132.68;;;;;;;;;;6214629;23;20016;-88
2021/12/28 02:39:53;;;;;;;632.58;119.55;;;;;;;;;;6214413;23;20012;-88
2021/12/28 02:42:22;;;;;;;700.13;126.03;;;;;;;;;;6214568;23;20016;-90
2021/12/28 02:45:18;;;;;;;565.22;113.32;;;;;;;;;;6189431;23;20453;-89
2021/12/28 02:47:45;;;;;;;487.58;102.45;;;;;;;;;;6195193;23;20015;-88
2021/12/28 02:50:16;;;;;;;579.63;111.65;;;;;;;;;;6214395;23;20016;-88
2021/12/28 02:52:43;;;;;;;621.25;118.25;;;;;;;;;;6214219;23;20016;-88
2021/12/28 02:55:10;;;;;;;508.33;103.88;;;;;;;;;;6188237;23;20052;-89
2021/12/28 02:57:37;;;;;;;562.55;114.70;;;;;;;;;;6189723;23;20008;-88
2021/12/28 03:00:05;;;;;;;382.20;85.68;;;;;;;;;;6188960;23;20012;-88
2021/12/28 03:02:31;;;;;;;376.55;92.13;;;;;;;;;;6188782;23;20008;-88
2021/12/28 03:04:58;;;;;;;601.10;122.35;;;;;;;;;;6189473;23;20396;-89
2021/12/28 03:07:30;;;;;;;463.52;98.70;;;;;;;;;;6215299;23;20019;-88
2021/12/28 03:09:57;;;;;;;376.42;90.10;;;;;;;;;;6189257;23;20019;-89
2021/12/28 03:12:23;;;;;;;666.65;126.25;;;;;;;;;;6189010;23;20594;-89
2021/12/28 03:14:50;;;;;;;445.63;91.82;;;;;;;;;;6189236;23;20087;-88
2021/12/28 03:17:16;;;;;;;596.60;113.20;;;;;;;;;;6189079;23;20012;-88
2021/12/28 03:19:42;;;;;;;601.42;112.85;;;;;;;;;;6189392;23;20013;-89
2021/12/28 03:22:09;;;;;;;360.95;90.95;;;;;;;;;;6189562;23;20043;-88
2021/12/28 03:24:35;;;;;;;442.15;101.95;;;;;;;;;;6189278;23;20016;-88
2021/12/28 03:27:01;;;;;;;554.85;113.20;;;;;;;;;;6189344;23;20012;-88
2021/12/28 03:29:28;;;;;;;456.08;103.10;;;;;;;;;;6189495;23;20016;-88
2021/12/28 03:31:54;;;;;;;501.50;99.53;;;;;;;;;;6189271;23;20023;-87
2021/12/28 03:34:20;;;;;;;483.27;102.05;;;;;;;;;;6188875;23;20023;-88
2021/12/28 03:36:47;;;;;;;426.58;90.07;;;;;;;;;;6189052;23;20019;-88
2021/12/28 03:39:13;;;;;;;397.30;89.82;;;;;;;;;;6189248;23;20083;-88
2021/12/28 03:41:39;;;;;;;696.78;126.82;;;;;;;;;;6188939;23;20051;-88
2021/12/28 03:44:06;;;;;;;716.67;127.32;;;;;;;;;;6188799;23;20012;-88
2021/12/28 03:46:32;;;;;;;471.40;95.70;;;;;;;;;;6189262;23;20077;-88
2021/12/28 03:49:04;;;;;;;524.22;104.18;;;;;;;;;;6189023;23;20018;-89
2021/12/28 03:51:30;;;;;;;798.83;132.18;;;;;;;;;;6188754;23;20078;-89
2021/12/28 03:53:57;;;;;;;877.67;141.15;;;;;;;;;;6213697;23;20418;-89
2021/12/28 03:56:23;;;;;;;350.25;84.03;;;;;;;;;;6188812;23;20091;-88
2021/12/28 03:58:50;;;;;;;420.40;92.60;;;;;;;;;;6188803;23;20577;-89
2021/12/28 04:01:19;;;;;;;776.40;134.82;;;;;;;;;;6189157;23;20014;-88
2021/12/28 04:03:45;;;;;;;839.53;142.73;;;;;;;;;;6213777;23;20012;-89
2021/12/28 04:06:11;;;;;;;558.40;105.28;;;;;;;;;;6188901;23;20020;-88
2021/12/28 04:08:39;;;;;;;847.35;143.13;;;;;;;;;;6189036;23;20342;-88
2021/12/28 04:13:50;;;;;;;628.35;116.20;;;;;;;;;;6213689;23;20341;-89
2021/12/28 04:16:18;;;;;;;456.08;95.18;;;;;;;;;;6188882;23;20078;-89
2021/12/28 04:18:44;;;;;;;419.02;83.05;;;;;;;;;;6188521;23;20094;-89
2021/12/28 04:21:11;;;;;;;209.43;63.25;;;;;;;;;;6188420;23;20479;-89
2021/12/28 04:23:37;;;;;;;464.63;95.85;;;;;;;;;;6188623;23;20091;-89
2021/12/28 04:26:04;;;;;;;448.48;93.10;;;;;;;;;;6188391;23;20016;-88
2021/12/28 04:28:30;;;;;;;436.35;90.43;;;;;;;;;;6188450;23;20016;-89
2021/12/28 04:31:03;;;;;;;478.08;98.50;;;;;;;;;;6213522;23;20095;-89
2021/12/28 04:33:29;;;;;;;276.00;73.20;;;;;;;;;;6188935;23;20016;-88
2021/12/28 04:35:55;;;;;;;610.72;114.90;;;;;;;;;;6213321;23;20012;-88
2021/12/28 04:38:22;;;;;;;381.45;86.45;;;;;;;;;;6188158;23;20422;-89
2021/12/28 04:40:48;;;;;;;314.38;77.72;;;;;;;;;;6189343;23;20062;-89
2021/12/28 04:43:15;;;;;;;399.40;88.70;;;;;;;;;;6188440;23;20549;-89
2021/12/28 04:45:42;;;;;;;439.65;96.45;;;;;;;;;;6188727;23;20641;-88
2021/12/28 04:48:08;;;;;;;621.40;115.32;;;;;;;;;;6187784;23;20118;-88
2021/12/28 04:50:38;;;;;;;454.02;94.13;;;;;;;;;;6188251;23;20043;-88
2021/12/28 04:53:09;;;;;;;387.58;88.03;;;;;;;;;;6188020;23;20017;-87
2021/12/28 04:55:35;;;;;;;488.10;99.57;;;;;;;;;;6188237;23;20017;-89
2021/12/28 04:58:01;;;;;;;297.80;77.32;;;;;;;;;;6213175;23;20012;-90
2021/12/28 05:00:27;;;;;;;388.42;87.80;;;;;;;;;;6213206;23;20008;-89
2021/12/28 05:02:54;;;;;;;444.45;95.50;;;;;;;;;;6187362;23;20012;-88
2021/12/28 05:05:20;;;;;;;512.28;103.35;;;;;;;;;;6187701;23;20327;-88
2021/12/28 05:07:46;;;;;;;504.05;92.35;;;;;;;;;;6188126;23;20016;-88
2021/12/28 05:10:12;;;;;;;501.17;94.45;;;;;;;;;;6188206;23;20385;-88
2021/12/28 05:12:39;;;;;;;435.08;88.57;;;;;;;;;;6188046;23;20016;-88
2021/12/28 05:15:06;;;;;;;387.40;84.80;;;;;;;;;;6212800;23;20039;-89
2021/12/28 05:17:33;;;;;;;371.45;85.30;;;;;;;;;;6213434;23;20225;-89
2021/12/28 05:19:59;;;;;;;354.80;83.70;;;;;;;;;;6188480;23;20014;-89
2021/12/28 05:22:26;;;;;;;473.80;93.85;;;;;;;;;;6188128;23;20008;-88
2021/12/28 05:24:52;;;;;;;520.72;100.97;;;;;;;;;;6240218;23;20091;-88
2021/12/28 05:27:18;;;;;;;390.25;86.53;;;;;;;;;;6188128;23;20012;-89
2021/12/28 05:29:45;;;;;;;314.60;77.32;;;;;;;;;;6187065;23;20324;-88
2021/12/28 05:32:11;;;;;;;401.77;88.15;;;;;;;;;;6212806;23;20046;-88
2021/12/28 05:34:37;;;;;;;462.10;98.63;;;;;;;;;;6187914;23;20016;-88
2021/12/28 05:37:03;;;;;;;417.73;91.20;;;;;;;;;;6187981;23;20013;-88
2021/12/28 05:39:30;;;;;;;240.05;65.53;;;;;;;;;;6212987;23;20233;-88
2021/12/28 05:41:56;;;;;;;336.95;80.05;;;;;;;;;;6188014;23;20047;-88
2021/12/28 05:44:23;;;;;;;319.48;77.10;;;;;;;;;;6212908;23;20016;-88
2021/12/28 05:46:50;;;;;;;362.92;82.93;;;;;;;;;;6188039;23;20016;-88
2021/12/28 05:49:17;;;;;;;382.58;81.07;;;;;;;;;;6213233;23;20046;-88
2021/12/28 05:51:43;;;;;;;257.10;68.88;;;;;;;;;;6187638;23;20454;-89
2021/12/28 05:54:09;;;;;;;294.60;75.75;;;;;;;;;;6188137;23;20023;-89
2021/12/28 05:56:36;;;;;;;291.83;71.68;;;;;;;;;;6187544;23;20083;-88
2021/12/28 05:59:03;;;;;;;282.95;70.60;;;;;;;;;;6187328;23;20455;-87
2021/12/28 06:01:29;;;;;;;447.48;90.85;;;;;;;;;;6187650;23;20008;-87
2021/12/28 06:03:56;;;;;;;309.13;73.40;;;;;;;;;;6187253;23;20023;-87
2021/12/28 06:06:22;;;;;;;225.98;60.65;;;;;;;;;;6188185;23;20012;-87
2021/12/28 06:08:48;;;;;;;263.48;67.68;;;;;;;;;;6213243;23;20572;-88
2021/12/28 06:11:14;;;;;;;250.20;64.20;;;;;;;;;;6188154;23;20012;-88
2021/12/28 06:13:41;;;;;;;199.82;59.92;;;;;;;;;;6187823;23;20016;-88
2021/12/28 06:16:07;;;;;;;243.27;62.85;;;;;;;;;;6239493;23;20051;-88
2021/12/28 06:18:34;;;;;;;300.27;69.78;;;;;;;;;;6212782;23;20012;-88
2021/12/28 06:21:00;;;;;;;254.77;64.95;;;;;;;;;;6213213;23;20016;-87
2021/12/28 06:23:26;;;;;;;377.48;81.13;;;;;;;;;;6189396;23;20012;-87
2021/12/28 06:25:52;;;;;;;222.93;60.40;;;;;;;;;;6189603;23;20008;-87
2021/12/28 06:28:18;;;;;;;201.40;56.95;;;;;;;;;;6214511;23;20016;-87
2021/12/28 06:30:45;;;;;;;252.70;63.88;;;;;;;;;;6189062;23;20446;-87
2021/12/28 06:33:11;;;;;;;240.07;61.58;;;;;;;;;;6189493;23;20252;-88
2021/12/28 06:35:38;;;;;;;322.50;68.32;;;;;;;;;;6189461;23;20091;-88
2021/12/28 06:38:04;;;;;;;179.57;53.88;;;;;;;;;;6189320;23;20012;-88
2021/12/28 06:40:30;;;;;;;221.20;57.95;;;;;;;;;;6189005;23;20020;-88
2021/12/28 06:42:56;;;;;;;200.27;54.38;;;;;;;;;;6189543;23;20019;-87
2021/12/28 06:45:23;;;;;;;146.90;47.80;;;;;;;;;;6189558;23;20055;-89
2021/12/28 06:47:49;;;;;;;260.35;63.03;;;;;;;;;;6214183;23;20070;-88
2021/12/28 06:50:15;;;;;;;228.85;59.40;;;;;;;;;;6189491;23;20330;-87
2021/12/28 06:52:42;;;;;;;205.82;55.67;;;;;;;;;;6189087;23;20027;-88
2021/12/28 06:55:09;;;;;;;181.88;52.33;;;;;;;;;;6189216;23;20059;-87
2021/12/28 06:57:35;;;;;;;191.85;55.10;;;;;;;;;;6189086;23;20016;-87
2021/12/28 07:00:02;;;;;;;181.88;52.90;;;;;;;;;;6189331;23;20012;-88
2021/12/28 07:02:29;;;;;;;230.38;56.15;;;;;;;;;;6214615;23;20334;-87
2021/12/28 07:04:55;;;;;;;251.23;61.35;;;;;;;;;;6189317;23;20099;-87
2021/12/28 07:07:22;;;;;;;302.70;62.97;;;;;;;;;;6189270;23;20090;-88
2021/12/28 07:09:48;;;;;;;169.27;48.63;;;;;;;;;;6241798;23;20016;-87
2021/12/28 07:12:14;;;;;;;220.85;57.05;;;;;;;;;;6214071;23;20095;-88
2021/12/28 07:14:41;;;;;;;239.32;60.60;;;;;;;;;;6214123;23;20027;-88
2021/12/28 07:17:07;;;;;;;207.50;55.35;;;;;;;;;;6214018;23;20015;-87
2021/12/28 07:19:33;;;;;;;203.13;54.45;;;;;;;;;;6214442;23;20012;-87
2021/12/28 07:22:00;;;;;;;203.88;53.90;;;;;;;;;;6188755;23;20339;-87
2021/12/28 07:24:26;;;;;;;192.23;52.17;;;;;;;;;;6188886;23;20074;-88
2021/12/28 07:26:53;;;;;;;172.82;49.90;;;;;;;;;;6188639;23;20020;-88
2021/12/28 07:29:20;;;;;;;280.13;63.22;;;;;;;;;;6189178;23;20095;-88
2021/12/28 07:31:47;;;;;;;241.38;58.75;;;;;;;;;;6188620;23;20062;-88
2021/12/28 07:34:13;;;;;;;160.48;48.45;;;;;;;;;;6213209;23;20461;-88
2021/12/28 07:36:39;;;;;;;159.88;49.78;;;;;;;;;;6186715;23;20383;-88
2021/12/28 07:39:06;;;;;;;263.60;58.88;;;;;;;;;;6188412;23;20015;-88
2021/12/28 07:41:32;;;;;;;186.13;51.65;;;;;;;;;;6211184;23;20019;-88
2021/12/28 07:43:59;;;;;;;198.07;54.83;;;;;;;;;;6212903;23;20035;-89
2021/12/28 07:46:25;;;;;;;149.20;47.03;;;;;;;;;;6187422;23;20020;-87
2021/12/28 07:48:52;;;;;;;124.25;41.83;;;;;;;;;;6187999;23;20019;-88
2021/12/28 07:51:18;;;;;;;145.38;45.80;;;;;;;;;;6213870;23;20016;-88
2021/12/28 07:53:44;;;;;;;112.20;39.72;;;;;;;;;;6188842;23;20035;-89
2021/12/28 07:56:10;;;;;;;107.75;41.50;;;;;;;;;;6188472;23;20016;-88
2021/12/28 07:58:37;;;;;;;155.95;46.65;;;;;;;;;;6188445;23;20103;-89
2021/12/28 08:01:03;;;;;;;143.48;45.95;;;;;;;;;;6188684;23;20012;-88
2021/12/28 08:03:29;;;;;;;189.45;50.40;;;;;;;;;;6213888;23;20091;-89
2021/12/28 08:05:56;;;;;;;121.45;40.20;;;;;;;;;;6187732;23;20027;-89
2021/12/28 08:08:22;;;;;;;108.45;40.83;;;;;;;;;;6187196;23;20103;-88
2021/12/28 08:10:48;;;;;;;110.28;38.90;;;;;;;;;;6188254;23;20341;-87
2021/12/28 08:13:16;;;;;;;110.10;38.72;;;;;;;;;;6213393;23;20550;-88
2021/12/28 08:15:43;;;;;;;96.20;38.45;;;;;;;;;;6187940;23;20477;-89
2021/12/28 08:18:09;;;;;;;120.88;40.22;;;;;;;;;;6188557;23;20019;-88
2021/12/28 08:20:36;;;;;;;85.32;32.28;;;;;;;;;;6240520;23;20061;-89
2021/12/28 08:23:02;;;;;;;93.03;37.08;;;;;;;;;;6213476;23;20016;-89
2021/12/28 08:25:29;;;;;;;100.93;36.78;;;;;;;;;;6213219;23;20087;-89
2021/12/28 08:27:56;;;;;;;101.07;35.95;;;;;;;;;;6188492;23;20012;-86
2021/12/28 08:30:22;;;;;;;111.40;38.35;;;;;;;;;;6188287;23;20012;-89
2021/12/28 08:32:49;;;;;;;94.95;35.88;;;;;;;;;;6212789;23;20012;-90
2021/12/28 08:35:16;;;;;;;88.88;34.20;;;;;;;;;;6213348;23;20039;-90
2021/12/28 08:37:42;;;;;;;73.90;29.88;;;;;;;;;;6187950;23;20099;-88
2021/12/28 08:40:09;;;;;;;84.70;31.20;;;;;;;;;;6212954;23;20342;-88
2021/12/28 08:42:36;;;;;;;100.78;37.22;;;;;;;;;;6213239;23;20044;-89
2021/12/28 08:45:02;;;;;;;101.93;34.88;;;;;;;;;;6213117;23;20066;-89
2021/12/28 08:47:28;;;;;;;55.13;25.73;;;;;;;;;;6214429;23;20457;-89
2021/12/28 08:49:56;;;;;;;78.60;30.60;;;;;;;;;;6241639;23;20319;-88
2021/12/28 08:52:22;;;;;;;74.20;27.20;;;;;;;;;;6189688;23;20016;-88
2021/12/28 08:54:49;;;;;;;61.22;24.08;;;;;;;;;;6194028;23;20019;-88
2021/12/28 08:57:15;;;;;;;48.83;21.50;;;;;;;;;;6191437;23;20047;-87
2021/12/28 08:59:41;;;;;;;95.90;32.80;;;;;;;;;;6216895;23;20012;-88
2021/12/28 09:02:09;;;;;;;93.95;33.08;;;;;;;;;;6189365;23;20023;-88
2021/12/28 09:04:39;;;;;;;79.68;28.90;;;;;;;;;;6188259;23;20016;-88
2021/12/28 09:07:05;;;;;;;56.78;23.95;;;;;;;;;;6188658;23;20054;-88
2021/12/28 09:09:32;;;;;;;64.15;25.30;;;;;;;;;;6188300;23;20018;-87
2021/12/28 09:11:58;;;;;;;76.40;28.23;;;;;;;;;;6188345;23;20016;-88
2021/12/28 09:14:24;;;;;;;68.85;25.60;;;;;;;;;;6188094;23;20016;-88
2021/12/28 09:16:50;;;;;;;78.80;25.95;;;;;;;;;;6188118;23;20050;-88
2021/12/28 09:19:17;;;;;;;65.85;25.52;;;;;;;;;;6188889;23;20008;-88
2021/12/28 09:21:43;;;;;;;62.95;24.08;;;;;;;;;;6187593;23;20086;-89
2021/12/28 09:24:09;;;;;;;69.40;26.10;;;;;;;;;;6211128;23;20018;-89
2021/12/28 09:26:37;;;;;;;62.42;23.85;;;;;;;;;;6212223;23;20016;-89
2021/12/28 09:29:03;;;;;;;65.82;26.58;;;;;;;;;;6187263;23;20016;-89
2021/12/28 09:31:29;;;;;;;74.72;25.63;;;;;;;;;;6187286;23;20020;-89
2021/12/28 09:33:57;;;;;;;56.58;23.88;;;;;;;;;;6212958;23;20016;-89
2021/12/28 09:36:23;;;;;;;65.45;23.65;;;;;;;;;;6187190;23;20009;-88
2021/12/28 09:38:49;;;;;;;50.00;20.08;;;;;;;;;;6186836;23;20315;-89
2021/12/28 09:41:15;;;;;;;67.88;25.95;;;;;;;;;;6210689;23;20012;-87
2021/12/28 09:43:42;;;;;;;56.38;23.20;;;;;;;;;;6187167;23;20026;-88
2021/12/28 09:46:08;;;;;;;69.75;25.30;;;;;;;;;;6187152;23;20012;-88
2021/12/28 09:48:35;;;;;;;56.58;24.27;;;;;;;;;;6187141;23;20559;-88
2021/12/28 09:51:02;;;;;;;48.38;21.73;;;;;;;;;;6187963;23;20016;-89
2021/12/28 09:53:29;;;;;;;65.82;22.95;;;;;;;;;;6187031;23;20090;-89
2021/12/28 09:55:55;;;;;;;58.22;22.25;;;;;;;;;;6187904;23;20028;-89
2021/12/28 09:58:22;;;;;;;41.65;18.73;;;;;;;;;;6189575;23;20450;-90
2021/12/28 10:00:51;;;;;;;56.17;21.92;;;;;;;;;;6189822;23;20441;-89
2021/12/28 10:03:17;;;;;;;58.33;23.48;;;;;;;;;;6214446;23;20012;-88
2021/12/28 10:05:44;;;;;;;74.60;25.98;;;;;;;;;;6217017;23;20091;-88
2021/12/28 10:08:13;;;;;;;51.40;19.13;;;;;;;;;;6217503;23;20019;-88
2021/12/28 10:10:58;;;;;;;44.30;19.63;;;;;;;;;;6220414;23;20016;-88
2021/12/28 10:13:28;;;;;;;56.63;24.77;;;;;;;;;;6189539;23;20437;-88
2021/12/28 10:16:02;;;;;;;59.97;23.20;;;;;;;;;;6188845;23;20264;-89
2021/12/28 10:18:30;;;;;;;43.53;17.80;;;;;;;;;;6189987;23;20194;-89
2021/12/28 10:21:18;;;;;;;39.30;17.15;;;;;;;;;;6197846;23;20521;-89
2021/12/28 10:23:48;;;;;;;43.83;18.90;;;;;;;;;;6189816;23;20146;-89
2021/12/28 10:26:16;;;;;;;40.78;17.75;;;;;;;;;;6189910;23;20497;-89
2021/12/28 10:28:42;;;;;;;48.90;19.08;;;;;;;;;;6189088;23;20012;-88
2021/12/28 10:31:10;;;;;;;47.38;19.08;;;;;;;;;;6214650;23;20310;-89
2021/12/28 10:33:38;;;;;;;46.30;17.25;;;;;;;;;;6215435;23;20167;-89
2021/12/28 10:36:07;;;;;;;46.47;19.13;;;;;;;;;;6215855;23;20095;-88
2021/12/28 10:38:35;;;;;;;48.08;24.48;;;;;;;;;;6188529;23;20016;-87
2021/12/28 10:41:09;;;;;;;43.30;19.23;;;;;;;;;;6187815;23;20044;-89
2021/12/28 10:43:36;;;;;;;47.08;19.27;;;;;;;;;;6188172;23;20012;-88
2021/12/28 10:46:04;;;;;;;55.97;21.00;;;;;;;;;;6188163;23;20174;-88
2021/12/28 10:48:37;;;;;;;60.47;29.67;;;;;;;;;;6188354;23;20337;-88
2021/12/28 10:51:05;;;;;;;50.90;21.13;;;;;;;;;;6213426;23;20020;-89
2021/12/28 10:53:38;;;;;;;62.78;21.20;;;;;;;;;;6178682;23;20009;-89
2021/12/28 10:56:09;;;;;;;45.95;19.35;;;;;;;;;;6180146;23;20013;-89
2021/12/28 10:58:39;;;;;;;55.90;21.45;;;;;;;;;;6155464;23;20064;-88
2021/12/28 11:01:17;;;;;;;51.95;20.25;;;;;;;;;;6179909;23;20045;-89
2021/12/28 11:03:47;;;;;;;49.85;21.90;;;;;;;;;;6154246;23;20009;-89
2021/12/28 11:06:16;;;;;;;47.80;21.42;;;;;;;;;;6179035;23;20092;-88
2021/12/28 11:08:44;;;;;;;61.25;24.75;;;;;;;;;;6129620;23;20013;-88
2021/12/28 11:11:12;;;;;;;52.13;23.58;;;;;;;;;;6128862;23;20051;-89
2021/12/28 11:13:38;;;;;;;61.55;26.05;;;;;;;;;;6154506;23;20474;-90
2021/12/28 11:16:06;;;;;;;47.35;22.23;;;;;;;;;;6130346;23;20013;-88
2021/12/28 11:18:40;;;;;;;59.17;26.50;;;;;;;;;;6154553;23;20048;-88
2021/12/28 11:21:25;;;;;;;53.95;24.52;;;;;;;;;;6130151;23;20019;-89
2021/12/28 11:23:53;;;;;;;64.03;26.52;;;;;;;;;;6130130;23;20341;-89
2021/12/28 11:26:30;;;;;;;65.95;28.13;;;;;;;;;;6130087;23;20013;-88
2021/12/28 11:28:58;;;;;;;63.13;26.63;;;;;;;;;;6129428;23;20013;-89
2021/12/28 11:31:35;;;;;;;64.63;27.48;;;;;;;;;;6154992;23;20029;-90
2021/12/28 11:34:12;;;;;;;66.22;28.92;;;;;;;;;;6154625;23;20013;-93
2021/12/28 11:36:40;;;;;;;63.05;27.52;;;;;;;;;;6128449;23;20014;-88
2021/12/28 11:39:11;;;;;;;70.43;31.10;;;;;;;;;;6154298;23;20072;-88
2021/12/28 11:41:38;;;;;;;56.17;27.58;;;;;;;;;;6154210;23;20012;-88
2021/12/28 11:44:04;;;;;;;68.13;29.25;;;;;;;;;;6129764;23;20017;-88
2021/12/28 11:46:49;;;;;;;73.85;31.75;;;;;;;;;;6153822;23;20064;-88
2021/12/28 11:49:16;;;;;;;57.28;26.33;;;;;;;;;;6129949;23;20075;-87
2021/12/28 11:51:44;;;;;;;63.45;29.13;;;;;;;;;;6161482;23;20025;-88
2021/12/28 11:54:12;;;;;;;64.75;29.10;;;;;;;;;;6158944;23;20450;-89
2021/12/28 11:56:39;;;;;;;60.78;27.65;;;;;;;;;;6183398;23;20008;-87
2021/12/28 11:59:09;;;;;;;61.05;28.45;;;;;;;;;;6184475;23;20366;-89
2021/12/28 12:01:47;;;;;;;74.43;30.13;;;;;;;;;;6158588;23;20473;-87
2021/12/28 12:04:35;;;;;;;63.47;30.42;;;;;;;;;;6183266;23;20013;-84
2021/12/28 12:07:16;;;;;;;63.60;27.15;;;;;;;;;;6157838;23;20013;-85
2021/12/28 12:09:52;;;;;;;56.40;27.50;;;;;;;;;;6183093;23;20450;-86
2021/12/28 12:12:45;;;;;;;53.92;26.45;;;;;;;;;;6183712;23;20016;-86
2021/12/28 12:15:12;;;;;;;67.43;28.27;;;;;;;;;;6183586;23;20077;-85
2021/12/28 12:17:45;;;;;;;58.00;27.35;;;;;;;;;;6183894;23;20256;-88
2021/12/28 12:20:18;;;;;;;62.13;27.15;;;;;;;;;;6181940;23;20012;-90
2021/12/28 12:22:52;;;;;;;62.13;28.58;;;;;;;;;;6182685;23;20008;-88
2021/12/28 12:25:46;;;;;;;70.80;31.60;;;;;;;;;;6200894;23;20020;-88
2021/12/28 12:28:13;;;;;;;69.85;28.25;;;;;;;;;;6182247;23;20013;-87
2021/12/28 12:30:45;;;;;;;60.17;26.40;;;;;;;;;;6155674;23;20356;-86
2021/12/28 12:33:12;;;;;;;68.18;27.48;;;;;;;;;;6182209;23;20442;-87
2021/12/28 12:35:39;;;;;;;41.10;21.05;;;;;;;;;;6182055;23;20353;-87
2021/12/28 12:38:15;;;;;;;41.35;21.00;;;;;;;;;;6182333;23;20311;-86
2021/12/28 12:41:00;;;;;;;60.75;27.35;;;;;;;;;;6182489;23;20492;-86
2021/12/28 12:43:27;;;;;;;60.13;26.25;;;;;;;;;;6181043;23;20012;-87
2021/12/28 12:45:54;;;;;;;50.15;24.73;;;;;;;;;;6182980;23;20008;-85
2021/12/28 12:48:31;;;;;;;70.22;28.42;;;;;;;;;;6181718;23;20020;-86
2021/12/28 12:51:16;;;;;;;66.07;28.60;;;;;;;;;;6181538;23;20012;-85
2021/12/28 12:53:47;;;;;;;74.28;30.08;;;;;;;;;;6157545;23;20024;-87
2021/12/28 12:56:23;;;;;;;68.30;29.33;;;;;;;;;;6132784;23;20017;-85
2021/12/28 12:58:50;;;;;;;75.47;32.30;;;;;;;;;;6156721;23;20328;-85
2021/12/28 13:01:36;;;;;;;67.80;29.15;;;;;;;;;;6153628;23;20023;-85
2021/12/28 13:04:03;;;;;;;70.97;29.88;;;;;;;;;;6153690;23;20017;-84
2021/12/28 13:06:42;;;;;;;62.63;30.15;;;;;;;;;;6153325;23;20056;-85
2021/12/28 13:09:08;;;;;;;48.97;25.38;;;;;;;;;;6128826;23;20017;-85
2021/12/28 13:11:39;;;;;;;98.88;36.33;;;;;;;;;;6128795;23;20068;-85
2021/12/28 13:14:06;;;;;;;51.10;26.48;;;;;;;;;;6152550;23;20510;-85
2021/12/28 13:16:33;;;;;;;73.40;31.95;;;;;;;;;;6153010;23;20466;-84
2021/12/28 13:19:13;;;;;;;75.05;31.75;;;;;;;;;;6153255;23;20099;-86
2021/12/28 13:21:40;;;;;;;74.88;32.65;;;;;;;;;;6153332;23;20028;-86
2021/12/28 13:24:11;;;;;;;60.70;27.90;;;;;;;;;;6153209;23;20043;-85
2021/12/28 13:26:46;;;;;;;74.90;32.58;;;;;;;;;;6152967;23;20494;-87
2021/12/28 13:29:12;;;;;;;70.07;30.27;;;;;;;;;;6128121;23;20059;-85
2021/12/28 13:31:38;;;;;;;60.42;28.25;;;;;;;;;;6153368;23;20099;-86
2021/12/28 13:34:05;;;;;;;86.40;33.90;;;;;;;;;;6155228;23;20020;-87
2021/12/28 13:36:31;;;;;;;88.28;34.60;;;;;;;;;;6179089;23;20092;-85
2021/12/28 13:39:08;;;;;;;70.05;30.48;;;;;;;;;;6181645;23;20016;-89
2021/12/28 13:41:35;;;;;;;68.72;31.83;;;;;;;;;;6159520;23;20013;-89
2021/12/28 13:44:07;;;;;;;76.38;32.75;;;;;;;;;;6134294;23;20044;-91
2021/12/28 13:46:33;;;;;;;99.10;36.30;;;;;;;;;;6156051;23;20092;-92
2021/12/28 13:48:59;;;;;;;59.55;29.42;;;;;;;;;;6155784;23;20021;-89
2021/12/28 13:51:27;;;;;;;68.43;31.40;;;;;;;;;;6157653;23;20021;-90
2021/12/28 13:53:57;;;;;;;84.50;34.58;;;;;;;;;;6134562;23;20021;-91
2021/12/28 13:56:23;;;;;;;67.10;30.40;;;;;;;;;;6151690;23;20009;-86
2021/12/28 13:58:53;;;;;;;80.90;33.63;;;;;;;;;;6152229;23;20469;-85
2021/12/28 14:01:20;;;;;;;73.53;32.30;;;;;;;;;;6152921;23;20091;-86
2021/12/28 14:04:05;;;;;;;65.00;28.30;;;;;;;;;;6154046;23;20686;-87
2021/12/28 14:06:33;;;;;;;75.32;31.67;;;;;;;;;;6153751;23;20017;-84
2021/12/28 14:09:04;;;;;;;76.13;31.17;;;;;;;;;;6154003;23;20016;-85
2021/12/28 14:11:31;;;;;;;81.55;32.25;;;;;;;;;;6155061;23;20455;-86
2021/12/28 14:13:57;;;;;;;84.75;34.10;;;;;;;;;;6130456;23;20316;-86
2021/12/28 14:16:24;;;;;;;102.40;36.78;;;;;;;;;;6155431;23;20092;-86
2021/12/28 14:18:51;;;;;;;113.00;38.30;;;;;;;;;;6155757;23;20377;-85